sensor_id;sensor_type;location;lat;lon;timestamp;P1;durP1;ratioP1;P2;durP2;ratioP2
21814;SDS011;11069;48.988;8.450;2024-03-29T00:00:39;1.45;;;1.27;;
21814;SDS011;11069;48.988;8.450;2024-03-29T00:03:05;4.40;;;1.33;;
21814;SDS011;11069;48.988;8.450;2024-03-29T00:05:32;2.35;;;1.30;;
21814;SDS011;11069;48.988;8.450;2024-03-29T00:07:58;3.28;;;1.40;;
21814;SDS011;11069;48.988;8.450;2024-03-29T00:10:24;2.65;;;1.33;;
21814;SDS011;11069;48.988;8.450;2024-03-29T00:12:49;2.25;;;1.33;;
21814;SDS011;11069;48.988;8.450;2024-03-29T00:15:15;2.67;;;1.40;;
21814;SDS011;11069;48.988;8.450;2024-03-29T00:17:41;3.78;;;1.42;;
21814;SDS011;11069;48.988;8.450;2024-03-29T00:20:06;2.65;;;1.30;;
21814;SDS011;11069;48.988;8.450;2024-03-29T00:22:33;3.10;;;1.17;;
21814;SDS011;11069;48.988;8.450;2024-03-29T00:24:59;2.13;;;1.17;;
21814;SDS011;11069;48.988;8.450;2024-03-29T00:27:24;3.33;;;1.40;;
21814;SDS011;11069;48.988;8.450;2024-03-29T00:29:51;2.85;;;1.33;;
21814;SDS011;11069;48.988;8.450;2024-03-29T00:32:18;1.58;;;1.23;;
21814;SDS011;11069;48.988;8.450;2024-03-29T00:34:44;3.78;;;1.50;;
21814;SDS011;11069;48.988;8.450;2024-03-29T00:37:10;3.75;;;1.48;;
21814;SDS011;11069;48.988;8.450;2024-03-29T00:39:36;2.45;;;1.77;;
21814;SDS011;11069;48.988;8.450;2024-03-29T00:42:02;1.83;;;1.30;;
21814;SDS011;11069;48.988;8.450;2024-03-29T00:44:28;2.63;;;1.17;;
21814;SDS011;11069;48.988;8.450;2024-03-29T00:46:53;4.28;;;1.77;;
21814;SDS011;11069;48.988;8.450;2024-03-29T00:49:19;2.75;;;1.33;;
21814;SDS011;11069;48.988;8.450;2024-03-29T00:51:44;1.90;;;1.33;;
21814;SDS011;11069;48.988;8.450;2024-03-29T00:54:10;2.17;;;1.20;;
21814;SDS011;11069;48.988;8.450;2024-03-29T00:56:35;1.85;;;1.20;;
21814;SDS011;11069;48.988;8.450;2024-03-29T00:59:01;3.13;;;1.30;;
21814;SDS011;11069;48.988;8.450;2024-03-29T01:01:26;2.75;;;1.40;;
21814;SDS011;11069;48.988;8.450;2024-03-29T01:03:52;1.77;;;1.10;;
21814;SDS011;11069;48.988;8.450;2024-03-29T01:06:18;1.92;;;1.20;;
21814;SDS011;11069;48.988;8.450;2024-03-29T01:08:44;2.47;;;1.33;;
21814;SDS011;11069;48.988;8.450;2024-03-29T01:11:10;2.10;;;1.30;;
21814;SDS011;11069;48.988;8.450;2024-03-29T01:13:36;2.72;;;1.40;;
21814;SDS011;11069;48.988;8.450;2024-03-29T01:16:01;2.45;;;1.50;;
21814;SDS011;11069;48.988;8.450;2024-03-29T01:18:27;1.95;;;1.42;;
21814;SDS011;11069;48.988;8.450;2024-03-29T01:20:52;2.05;;;1.10;;
21814;SDS011;11069;48.988;8.450;2024-03-29T01:23:18;1.38;;;1.20;;
21814;SDS011;11069;48.988;8.450;2024-03-29T01:25:43;2.00;;;1.10;;
21814;SDS011;11069;48.988;8.450;2024-03-29T01:28:09;2.78;;;1.33;;
21814;SDS011;11069;48.988;8.450;2024-03-29T01:30:34;1.77;;;1.23;;
21814;SDS011;11069;48.988;8.450;2024-03-29T01:33:00;1.55;;;1.15;;
21814;SDS011;11069;48.988;8.450;2024-03-29T01:35:26;1.98;;;1.30;;
21814;SDS011;11069;48.988;8.450;2024-03-29T01:37:51;1.38;;;1.00;;
21814;SDS011;11069;48.988;8.450;2024-03-29T01:40:17;2.47;;;1.27;;
21814;SDS011;11069;48.988;8.450;2024-03-29T01:42:42;2.17;;;1.30;;
21814;SDS011;11069;48.988;8.450;2024-03-29T01:45:08;3.03;;;1.20;;
21814;SDS011;11069;48.988;8.450;2024-03-29T01:47:34;2.25;;;1.15;;
21814;SDS011;11069;48.988;8.450;2024-03-29T01:50:00;1.73;;;1.40;;
21814;SDS011;11069;48.988;8.450;2024-03-29T01:52:26;2.97;;;1.48;;
21814;SDS011;11069;48.988;8.450;2024-03-29T01:54:53;4.18;;;1.42;;
21814;SDS011;11069;48.988;8.450;2024-03-29T01:57:19;1.27;;;1.00;;
21814;SDS011;11069;48.988;8.450;2024-03-29T01:59:45;3.03;;;1.08;;
21814;SDS011;11069;48.988;8.450;2024-03-29T02:02:13;1.90;;;1.20;;
21814;SDS011;11069;48.988;8.450;2024-03-29T02:04:39;1.55;;;1.02;;
21814;SDS011;11069;48.988;8.450;2024-03-29T02:07:06;1.67;;;1.02;;
21814;SDS011;11069;48.988;8.450;2024-03-29T02:09:32;2.28;;;1.10;;
21814;SDS011;11069;48.988;8.450;2024-03-29T02:11:58;1.40;;;1.00;;
21814;SDS011;11069;48.988;8.450;2024-03-29T02:14:23;1.55;;;0.80;;
21814;SDS011;11069;48.988;8.450;2024-03-29T02:16:49;2.38;;;1.05;;
21814;SDS011;11069;48.988;8.450;2024-03-29T02:19:15;1.42;;;0.98;;
21814;SDS011;11069;48.988;8.450;2024-03-29T02:21:41;1.80;;;1.17;;
21814;SDS011;11069;48.988;8.450;2024-03-29T02:24:10;2.47;;;1.17;;
21814;SDS011;11069;48.988;8.450;2024-03-29T02:26:39;2.03;;;1.15;;
21814;SDS011;11069;48.988;8.450;2024-03-29T02:29:07;1.13;;;0.73;;
21814;SDS011;11069;48.988;8.450;2024-03-29T02:31:37;1.40;;;1.05;;
21814;SDS011;11069;48.988;8.450;2024-03-29T02:34:03;1.70;;;1.15;;
21814;SDS011;11069;48.988;8.450;2024-03-29T02:36:28;1.40;;;0.98;;
21814;SDS011;11069;48.988;8.450;2024-03-29T02:38:54;1.30;;;0.90;;
21814;SDS011;11069;48.988;8.450;2024-03-29T02:41:21;3.60;;;1.05;;
21814;SDS011;11069;48.988;8.450;2024-03-29T02:43:47;2.13;;;0.90;;
21814;SDS011;11069;48.988;8.450;2024-03-29T02:46:12;3.17;;;1.00;;
21814;SDS011;11069;48.988;8.450;2024-03-29T02:48:38;1.90;;;1.00;;
21814;SDS011;11069;48.988;8.450;2024-03-29T02:51:03;2.08;;;0.80;;
21814;SDS011;11069;48.988;8.450;2024-03-29T02:53:29;0.90;;;0.88;;
21814;SDS011;11069;48.988;8.450;2024-03-29T02:55:55;1.73;;;0.90;;
21814;SDS011;11069;48.988;8.450;2024-03-29T02:58:20;1.83;;;1.00;;
21814;SDS011;11069;48.988;8.450;2024-03-29T03:00:46;1.15;;;0.80;;
21814;SDS011;11069;48.988;8.450;2024-03-29T03:03:13;1.90;;;1.10;;
21814;SDS011;11069;48.988;8.450;2024-03-29T03:05:41;1.80;;;1.00;;
21814;SDS011;11069;48.988;8.450;2024-03-29T03:08:06;2.22;;;1.00;;
21814;SDS011;11069;48.988;8.450;2024-03-29T03:10:51;1.20;;;0.90;;
21814;SDS011;11069;48.988;8.450;2024-03-29T03:13:25;1.88;;;0.98;;
21814;SDS011;11069;48.988;8.450;2024-03-29T03:15:51;1.45;;;0.90;;
21814;SDS011;11069;48.988;8.450;2024-03-29T03:18:17;1.48;;;1.00;;
21814;SDS011;11069;48.988;8.450;2024-03-29T03:20:42;1.42;;;1.00;;
21814;SDS011;11069;48.988;8.450;2024-03-29T03:23:18;1.02;;;0.80;;
21814;SDS011;11069;48.988;8.450;2024-03-29T03:25:45;2.38;;;0.88;;
21814;SDS011;11069;48.988;8.450;2024-03-29T03:28:24;1.92;;;0.93;;
21814;SDS011;11069;48.988;8.450;2024-03-29T03:30:50;1.55;;;1.00;;
21814;SDS011;11069;48.988;8.450;2024-03-29T03:33:16;1.33;;;0.85;;
21814;SDS011;11069;48.988;8.450;2024-03-29T03:35:42;2.00;;;0.90;;
21814;SDS011;11069;48.988;8.450;2024-03-29T03:38:08;0.82;;;0.82;;
21814;SDS011;11069;48.988;8.450;2024-03-29T03:40:34;1.58;;;0.90;;
21814;SDS011;11069;48.988;8.450;2024-03-29T03:43:03;1.48;;;0.80;;
21814;SDS011;11069;48.988;8.450;2024-03-29T03:45:37;0.97;;;0.80;;
21814;SDS011;11069;48.988;8.450;2024-03-29T03:48:05;1.38;;;0.70;;
21814;SDS011;11069;48.988;8.450;2024-03-29T03:50:31;1.70;;;0.98;;
21814;SDS011;11069;48.988;8.450;2024-03-29T03:52:57;0.90;;;0.70;;
21814;SDS011;11069;48.988;8.450;2024-03-29T03:55:23;1.20;;;1.05;;
21814;SDS011;11069;48.988;8.450;2024-03-29T03:57:49;1.05;;;0.80;;
21814;SDS011;11069;48.988;8.450;2024-03-29T04:00:14;1.50;;;0.75;;
21814;SDS011;11069;48.988;8.450;2024-03-29T04:02:41;1.65;;;0.85;;
21814;SDS011;11069;48.988;8.450;2024-03-29T04:05:06;1.65;;;0.60;;
21814;SDS011;11069;48.988;8.450;2024-03-29T04:07:32;1.33;;;0.90;;
21814;SDS011;11069;48.988;8.450;2024-03-29T04:09:58;0.95;;;0.65;;
21814;SDS011;11069;48.988;8.450;2024-03-29T04:12:23;1.52;;;0.82;;
21814;SDS011;11069;48.988;8.450;2024-03-29T04:14:49;1.30;;;0.80;;
21814;SDS011;11069;48.988;8.450;2024-03-29T04:17:14;0.98;;;0.88;;
21814;SDS011;11069;48.988;8.450;2024-03-29T04:19:40;1.08;;;0.70;;
21814;SDS011;11069;48.988;8.450;2024-03-29T04:22:06;1.00;;;0.63;;
21814;SDS011;11069;48.988;8.450;2024-03-29T04:24:31;0.85;;;0.80;;
21814;SDS011;11069;48.988;8.450;2024-03-29T04:26:57;0.70;;;0.70;;
21814;SDS011;11069;48.988;8.450;2024-03-29T04:29:23;1.17;;;0.70;;
21814;SDS011;11069;48.988;8.450;2024-03-29T04:31:48;0.50;;;0.50;;
21814;SDS011;11069;48.988;8.450;2024-03-29T04:34:14;0.75;;;0.75;;
21814;SDS011;11069;48.988;8.450;2024-03-29T04:36:39;1.00;;;0.85;;
21814;SDS011;11069;48.988;8.450;2024-03-29T04:39:05;1.77;;;0.68;;
21814;SDS011;11069;48.988;8.450;2024-03-29T04:41:31;1.38;;;0.63;;
21814;SDS011;11069;48.988;8.450;2024-03-29T04:43:59;1.27;;;0.70;;
21814;SDS011;11069;48.988;8.450;2024-03-29T04:46:28;2.45;;;0.70;;
21814;SDS011;11069;48.988;8.450;2024-03-29T04:48:55;1.42;;;0.70;;
21814;SDS011;11069;48.988;8.450;2024-03-29T04:51:20;1.83;;;0.70;;
21814;SDS011;11069;48.988;8.450;2024-03-29T04:53:46;0.60;;;0.60;;
21814;SDS011;11069;48.988;8.450;2024-03-29T04:56:12;0.90;;;0.60;;
21814;SDS011;11069;48.988;8.450;2024-03-29T04:58:37;1.25;;;0.80;;
21814;SDS011;11069;48.988;8.450;2024-03-29T05:01:03;0.77;;;0.50;;
21814;SDS011;11069;48.988;8.450;2024-03-29T05:03:29;1.30;;;0.57;;
21814;SDS011;11069;48.988;8.450;2024-03-29T05:05:56;0.95;;;0.55;;
21814;SDS011;11069;48.988;8.450;2024-03-29T05:08:22;3.13;;;0.80;;
21814;SDS011;11069;48.988;8.450;2024-03-29T05:10:50;0.88;;;0.70;;
21814;SDS011;11069;48.988;8.450;2024-03-29T05:13:16;0.60;;;0.60;;
21814;SDS011;11069;48.988;8.450;2024-03-29T05:15:44;2.10;;;0.73;;
21814;SDS011;11069;48.988;8.450;2024-03-29T05:18:10;0.55;;;0.55;;
21814;SDS011;11069;48.988;8.450;2024-03-29T05:20:36;1.02;;;0.50;;
21814;SDS011;11069;48.988;8.450;2024-03-29T05:23:01;2.45;;;0.70;;
21814;SDS011;11069;48.988;8.450;2024-03-29T05:25:27;1.30;;;0.70;;
21814;SDS011;11069;48.988;8.450;2024-03-29T05:27:53;0.95;;;0.70;;
21814;SDS011;11069;48.988;8.450;2024-03-29T05:30:18;0.77;;;0.70;;
21814;SDS011;11069;48.988;8.450;2024-03-29T05:32:44;0.82;;;0.75;;
21814;SDS011;11069;48.988;8.450;2024-03-29T05:35:10;0.60;;;0.60;;
21814;SDS011;11069;48.988;8.450;2024-03-29T05:37:36;1.40;;;0.77;;
21814;SDS011;11069;48.988;8.450;2024-03-29T05:40:02;1.30;;;0.80;;
21814;SDS011;11069;48.988;8.450;2024-03-29T05:42:32;2.43;;;0.77;;
21814;SDS011;11069;48.988;8.450;2024-03-29T05:44:59;0.82;;;0.60;;
21814;SDS011;11069;48.988;8.450;2024-03-29T05:47:25;0.80;;;0.60;;
21814;SDS011;11069;48.988;8.450;2024-03-29T05:49:51;1.38;;;0.60;;
21814;SDS011;11069;48.988;8.450;2024-03-29T05:52:16;0.50;;;0.50;;
21814;SDS011;11069;48.988;8.450;2024-03-29T05:54:42;0.88;;;0.60;;
21814;SDS011;11069;48.988;8.450;2024-03-29T05:57:08;0.60;;;0.60;;
21814;SDS011;11069;48.988;8.450;2024-03-29T05:59:34;0.50;;;0.50;;
21814;SDS011;11069;48.988;8.450;2024-03-29T06:02:00;1.45;;;0.60;;
21814;SDS011;11069;48.988;8.450;2024-03-29T06:04:26;0.75;;;0.68;;
21814;SDS011;11069;48.988;8.450;2024-03-29T06:06:58;0.75;;;0.63;;
21814;SDS011;11069;48.988;8.450;2024-03-29T06:09:24;0.95;;;0.70;;
21814;SDS011;11069;48.988;8.450;2024-03-29T06:11:50;1.27;;;1.17;;
21814;SDS011;11069;48.988;8.450;2024-03-29T06:14:16;2.85;;;0.65;;
21814;SDS011;11069;48.988;8.450;2024-03-29T06:17:01;0.60;;;0.60;;
21814;SDS011;11069;48.988;8.450;2024-03-29T06:19:53;0.98;;;0.80;;
21814;SDS011;11069;48.988;8.450;2024-03-29T06:22:28;1.52;;;0.98;;
21814;SDS011;11069;48.988;8.450;2024-03-29T06:24:55;2.00;;;1.30;;
21814;SDS011;11069;48.988;8.450;2024-03-29T06:27:24;3.45;;;1.30;;
21814;SDS011;11069;48.988;8.450;2024-03-29T06:29:50;1.92;;;1.35;;
21814;SDS011;11069;48.988;8.450;2024-03-29T06:32:16;2.15;;;1.60;;
21814;SDS011;11069;48.988;8.450;2024-03-29T06:34:43;2.15;;;1.60;;
21814;SDS011;11069;48.988;8.450;2024-03-29T06:37:11;2.03;;;1.48;;
21814;SDS011;11069;48.988;8.450;2024-03-29T06:39:37;2.85;;;1.77;;
21814;SDS011;11069;48.988;8.450;2024-03-29T06:42:03;1.98;;;1.70;;
21814;SDS011;11069;48.988;8.450;2024-03-29T06:44:32;2.33;;;1.70;;
21814;SDS011;11069;48.988;8.450;2024-03-29T06:46:57;2.88;;;1.88;;
21814;SDS011;11069;48.988;8.450;2024-03-29T06:49:23;1.80;;;1.40;;
21814;SDS011;11069;48.988;8.450;2024-03-29T06:51:49;4.03;;;1.70;;
21814;SDS011;11069;48.988;8.450;2024-03-29T06:54:14;2.97;;;1.50;;
21814;SDS011;11069;48.988;8.450;2024-03-29T06:56:40;3.00;;;1.80;;
21814;SDS011;11069;48.988;8.450;2024-03-29T06:59:06;2.67;;;1.63;;
21814;SDS011;11069;48.988;8.450;2024-03-29T07:01:31;2.65;;;1.95;;
21814;SDS011;11069;48.988;8.450;2024-03-29T07:03:57;3.08;;;2.08;;
21814;SDS011;11069;48.988;8.450;2024-03-29T07:06:22;2.63;;;1.88;;
21814;SDS011;11069;48.988;8.450;2024-03-29T07:08:48;2.00;;;1.80;;
21814;SDS011;11069;48.988;8.450;2024-03-29T07:11:13;2.78;;;1.80;;
21814;SDS011;11069;48.988;8.450;2024-03-29T07:13:39;3.22;;;2.10;;
21814;SDS011;11069;48.988;8.450;2024-03-29T07:16:05;3.33;;;2.05;;
21814;SDS011;11069;48.988;8.450;2024-03-29T07:18:32;3.10;;;2.05;;
21814;SDS011;11069;48.988;8.450;2024-03-29T07:20:57;1.90;;;1.70;;
21814;SDS011;11069;48.988;8.450;2024-03-29T07:23:23;3.75;;;2.00;;
21814;SDS011;11069;48.988;8.450;2024-03-29T07:28:23;2.97;;;2.10;;
21814;SDS011;11069;48.988;8.450;2024-03-29T07:30:49;3.92;;;2.28;;
21814;SDS011;11069;48.988;8.450;2024-03-29T07:33:18;4.65;;;2.50;;
21814;SDS011;11069;48.988;8.450;2024-03-29T07:35:46;6.25;;;2.47;;
21814;SDS011;11069;48.988;8.450;2024-03-29T07:38:12;4.72;;;2.40;;
21814;SDS011;11069;48.988;8.450;2024-03-29T07:40:40;6.65;;;3.10;;
21814;SDS011;11069;48.988;8.450;2024-03-29T07:43:06;5.00;;;3.10;;
21814;SDS011;11069;48.988;8.450;2024-03-29T07:45:31;6.32;;;3.15;;
21814;SDS011;11069;48.988;8.450;2024-03-29T07:47:57;7.28;;;3.47;;
21814;SDS011;11069;48.988;8.450;2024-03-29T07:50:23;4.75;;;3.28;;
21814;SDS011;11069;48.988;8.450;2024-03-29T07:52:49;5.28;;;2.75;;
21814;SDS011;11069;48.988;8.450;2024-03-29T07:55:16;7.93;;;2.92;;
21814;SDS011;11069;48.988;8.450;2024-03-29T07:57:41;7.72;;;3.53;;
21814;SDS011;11069;48.988;8.450;2024-03-29T08:00:07;6.60;;;3.00;;
21814;SDS011;11069;48.988;8.450;2024-03-29T08:02:35;6.18;;;3.15;;
21814;SDS011;11069;48.988;8.450;2024-03-29T08:05:01;6.60;;;3.03;;
21814;SDS011;11069;48.988;8.450;2024-03-29T08:07:27;6.63;;;2.97;;
21814;SDS011;11069;48.988;8.450;2024-03-29T08:09:53;6.10;;;3.40;;
21814;SDS011;11069;48.988;8.450;2024-03-29T08:12:19;5.00;;;2.83;;
21814;SDS011;11069;48.988;8.450;2024-03-29T08:14:44;4.72;;;2.78;;
21814;SDS011;11069;48.988;8.450;2024-03-29T08:17:11;4.93;;;2.72;;
21814;SDS011;11069;48.988;8.450;2024-03-29T08:19:39;8.93;;;2.90;;
21814;SDS011;11069;48.988;8.450;2024-03-29T08:22:06;3.60;;;2.47;;
21814;SDS011;11069;48.988;8.450;2024-03-29T08:24:35;4.32;;;2.90;;
21814;SDS011;11069;48.988;8.450;2024-03-29T08:27:04;5.40;;;2.50;;
21814;SDS011;11069;48.988;8.450;2024-03-29T08:29:29;4.97;;;2.67;;
21814;SDS011;11069;48.988;8.450;2024-03-29T08:31:55;3.28;;;2.13;;
21814;SDS011;11069;48.988;8.450;2024-03-29T08:34:21;4.15;;;2.40;;
21814;SDS011;11069;48.988;8.450;2024-03-29T08:36:47;5.05;;;2.55;;
21814;SDS011;11069;48.988;8.450;2024-03-29T08:39:12;3.90;;;2.38;;
21814;SDS011;11069;48.988;8.450;2024-03-29T08:41:38;3.55;;;2.40;;
21814;SDS011;11069;48.988;8.450;2024-03-29T08:44:05;4.10;;;2.25;;
21814;SDS011;11069;48.988;8.450;2024-03-29T08:46:31;6.72;;;2.50;;
21814;SDS011;11069;48.988;8.450;2024-03-29T08:48:57;6.43;;;2.65;;
21814;SDS011;11069;48.988;8.450;2024-03-29T08:51:23;4.38;;;2.35;;
21814;SDS011;11069;48.988;8.450;2024-03-29T08:53:49;5.25;;;2.42;;
21814;SDS011;11069;48.988;8.450;2024-03-29T08:56:15;4.65;;;2.10;;
21814;SDS011;11069;48.988;8.450;2024-03-29T08:58:43;3.35;;;2.08;;
21814;SDS011;11069;48.988;8.450;2024-03-29T09:01:09;4.78;;;2.70;;
21814;SDS011;11069;48.988;8.450;2024-03-29T09:03:37;3.83;;;2.30;;
21814;SDS011;11069;48.988;8.450;2024-03-29T09:06:03;4.88;;;2.08;;
21814;SDS011;11069;48.988;8.450;2024-03-29T09:08:29;3.33;;;2.20;;
21814;SDS011;11069;48.988;8.450;2024-03-29T09:10:54;4.95;;;2.50;;
21814;SDS011;11069;48.988;8.450;2024-03-29T09:13:20;2.35;;;2.10;;
21814;SDS011;11069;48.988;8.450;2024-03-29T09:15:46;2.88;;;1.80;;
21814;SDS011;11069;48.988;8.450;2024-03-29T09:18:12;5.20;;;1.73;;
21814;SDS011;11069;48.988;8.450;2024-03-29T09:20:56;2.63;;;1.60;;
21814;SDS011;11069;48.988;8.450;2024-03-29T09:23:23;3.72;;;1.92;;
21814;SDS011;11069;48.988;8.450;2024-03-29T09:25:50;2.20;;;1.50;;
21814;SDS011;11069;48.988;8.450;2024-03-29T09:28:16;1.55;;;1.30;;
21814;SDS011;11069;48.988;8.450;2024-03-29T09:30:41;2.03;;;1.27;;
21814;SDS011;11069;48.988;8.450;2024-03-29T09:33:07;3.92;;;1.77;;
21814;SDS011;11069;48.988;8.450;2024-03-29T09:35:34;3.38;;;2.13;;
21814;SDS011;11069;48.988;8.450;2024-03-29T09:38:01;6.07;;;2.00;;
21814;SDS011;11069;48.988;8.450;2024-03-29T09:40:29;3.45;;;1.83;;
21814;SDS011;11069;48.988;8.450;2024-03-29T09:42:59;3.20;;;1.88;;
21814;SDS011;11069;48.988;8.450;2024-03-29T09:45:30;2.83;;;1.65;;
21814;SDS011;11069;48.988;8.450;2024-03-29T09:47:58;3.20;;;1.80;;
21814;SDS011;11069;48.988;8.450;2024-03-29T09:50:27;3.20;;;1.40;;
21814;SDS011;11069;48.988;8.450;2024-03-29T09:52:54;2.08;;;1.50;;
21814;SDS011;11069;48.988;8.450;2024-03-29T09:55:20;3.42;;;1.60;;
21814;SDS011;11069;48.988;8.450;2024-03-29T09:57:47;2.97;;;1.70;;
21814;SDS011;11069;48.988;8.450;2024-03-29T10:00:13;2.50;;;1.70;;
21814;SDS011;11069;48.988;8.450;2024-03-29T10:02:39;2.05;;;1.35;;
21814;SDS011;11069;48.988;8.450;2024-03-29T10:05:06;2.70;;;1.40;;
21814;SDS011;11069;48.988;8.450;2024-03-29T10:07:34;2.72;;;1.55;;
21814;SDS011;11069;48.988;8.450;2024-03-29T10:10:01;5.13;;;1.83;;
21814;SDS011;11069;48.988;8.450;2024-03-29T10:12:28;4.05;;;1.50;;
21814;SDS011;11069;48.988;8.450;2024-03-29T10:14:54;3.15;;;1.85;;
21814;SDS011;11069;48.988;8.450;2024-03-29T10:17:30;2.72;;;1.38;;
21814;SDS011;11069;48.988;8.450;2024-03-29T10:19:59;4.90;;;1.52;;
21814;SDS011;11069;48.988;8.450;2024-03-29T10:22:29;1.30;;;1.20;;
21814;SDS011;11069;48.988;8.450;2024-03-29T10:24:58;1.98;;;1.30;;
21814;SDS011;11069;48.988;8.450;2024-03-29T10:27:25;2.35;;;1.27;;
21814;SDS011;11069;48.988;8.450;2024-03-29T10:29:52;2.15;;;1.50;;
21814;SDS011;11069;48.988;8.450;2024-03-29T10:32:18;2.45;;;1.55;;
21814;SDS011;11069;48.988;8.450;2024-03-29T10:34:44;1.33;;;1.10;;
21814;SDS011;11069;48.988;8.450;2024-03-29T10:37:09;2.95;;;1.10;;
21814;SDS011;11069;48.988;8.450;2024-03-29T10:39:35;4.60;;;1.20;;
21814;SDS011;11069;48.988;8.450;2024-03-29T10:42:01;2.75;;;1.30;;
21814;SDS011;11069;48.988;8.450;2024-03-29T10:44:30;1.67;;;1.17;;
21814;SDS011;11069;48.988;8.450;2024-03-29T10:46:57;2.20;;;1.10;;
21814;SDS011;11069;48.988;8.450;2024-03-29T10:49:24;1.88;;;1.30;;
21814;SDS011;11069;48.988;8.450;2024-03-29T10:51:50;3.92;;;0.90;;
21814;SDS011;11069;48.988;8.450;2024-03-29T10:54:21;1.88;;;1.13;;
21814;SDS011;11069;48.988;8.450;2024-03-29T10:56:51;2.85;;;1.13;;
21814;SDS011;11069;48.988;8.450;2024-03-29T10:59:35;1.58;;;1.08;;
21814;SDS011;11069;48.988;8.450;2024-03-29T11:02:12;2.08;;;0.93;;
21814;SDS011;11069;48.988;8.450;2024-03-29T11:04:49;1.23;;;0.82;;
21814;SDS011;11069;48.988;8.450;2024-03-29T11:07:19;2.30;;;0.90;;
21814;SDS011;11069;48.988;8.450;2024-03-29T11:09:50;1.08;;;0.80;;
21814;SDS011;11069;48.988;8.450;2024-03-29T11:12:20;1.77;;;0.70;;
21814;SDS011;11069;48.988;8.450;2024-03-29T11:14:48;1.70;;;1.00;;
21814;SDS011;11069;48.988;8.450;2024-03-29T11:17:29;1.58;;;0.80;;
21814;SDS011;11069;48.988;8.450;2024-03-29T11:19:55;1.17;;;0.85;;
21814;SDS011;11069;48.988;8.450;2024-03-29T11:22:23;1.80;;;0.82;;
21814;SDS011;11069;48.988;8.450;2024-03-29T11:24:53;1.42;;;0.95;;
21814;SDS011;11069;48.988;8.450;2024-03-29T11:27:22;1.90;;;0.95;;
21814;SDS011;11069;48.988;8.450;2024-03-29T11:29:48;3.17;;;0.98;;
21814;SDS011;11069;48.988;8.450;2024-03-29T11:32:15;0.50;;;0.50;;
21814;SDS011;11069;48.988;8.450;2024-03-29T11:34:59;0.77;;;0.60;;
21814;SDS011;11069;48.988;8.450;2024-03-29T11:37:29;1.08;;;0.73;;
21814;SDS011;11069;48.988;8.450;2024-03-29T11:39:58;1.58;;;0.80;;
21814;SDS011;11069;48.988;8.450;2024-03-29T11:45:10;2.08;;;0.75;;
21814;SDS011;11069;48.988;8.450;2024-03-29T11:47:37;0.82;;;0.77;;
21814;SDS011;11069;48.988;8.450;2024-03-29T11:50:06;1.45;;;0.85;;
21814;SDS011;11069;48.988;8.450;2024-03-29T11:52:33;1.30;;;0.70;;
21814;SDS011;11069;48.988;8.450;2024-03-29T11:54:59;1.98;;;0.80;;
21814;SDS011;11069;48.988;8.450;2024-03-29T11:57:24;1.95;;;0.80;;
21814;SDS011;11069;48.988;8.450;2024-03-29T11:59:50;1.42;;;0.75;;
21814;SDS011;11069;48.988;8.450;2024-03-29T12:02:15;0.90;;;0.60;;
21814;SDS011;11069;48.988;8.450;2024-03-29T12:04:42;1.20;;;0.80;;
21814;SDS011;11069;48.988;8.450;2024-03-29T12:07:08;0.75;;;0.57;;
21814;SDS011;11069;48.988;8.450;2024-03-29T12:09:34;1.13;;;0.77;;
21814;SDS011;11069;48.988;8.450;2024-03-29T12:12:00;2.25;;;0.65;;
21814;SDS011;11069;48.988;8.450;2024-03-29T12:14:31;2.45;;;0.70;;
21814;SDS011;11069;48.988;8.450;2024-03-29T12:17:00;0.75;;;0.75;;
21814;SDS011;11069;48.988;8.450;2024-03-29T12:19:27;1.00;;;0.82;;
21814;SDS011;11069;48.988;8.450;2024-03-29T12:21:53;1.88;;;1.00;;
21814;SDS011;11069;48.988;8.450;2024-03-29T12:24:19;0.70;;;0.60;;
21814;SDS011;11069;48.988;8.450;2024-03-29T12:26:45;1.40;;;0.75;;
21814;SDS011;11069;48.988;8.450;2024-03-29T12:29:14;3.28;;;0.80;;
21814;SDS011;11069;48.988;8.450;2024-03-29T12:31:40;1.88;;;0.70;;
21814;SDS011;11069;48.988;8.450;2024-03-29T12:34:06;1.13;;;0.70;;
21814;SDS011;11069;48.988;8.450;2024-03-29T12:36:32;1.10;;;0.68;;
21814;SDS011;11069;48.988;8.450;2024-03-29T12:38:58;0.80;;;0.60;;
21814;SDS011;11069;48.988;8.450;2024-03-29T12:41:28;1.08;;;0.80;;
21814;SDS011;11069;48.988;8.450;2024-03-29T12:43:54;1.00;;;0.80;;
21814;SDS011;11069;48.988;8.450;2024-03-29T12:46:20;1.17;;;0.75;;
21814;SDS011;11069;48.988;8.450;2024-03-29T12:48:46;1.17;;;0.80;;
21814;SDS011;11069;48.988;8.450;2024-03-29T12:51:11;2.33;;;0.98;;
21814;SDS011;11069;48.988;8.450;2024-03-29T12:53:37;1.10;;;1.00;;
21814;SDS011;11069;48.988;8.450;2024-03-29T12:56:04;2.78;;;1.40;;
21814;SDS011;11069;48.988;8.450;2024-03-29T12:58:30;1.77;;;1.33;;
21814;SDS011;11069;48.988;8.450;2024-03-29T13:00:56;1.77;;;1.10;;
21814;SDS011;11069;48.988;8.450;2024-03-29T13:03:22;2.25;;;1.50;;
21814;SDS011;11069;48.988;8.450;2024-03-29T13:05:48;3.42;;;1.20;;
21814;SDS011;11069;48.988;8.450;2024-03-29T13:08:14;2.75;;;1.60;;
21814;SDS011;11069;48.988;8.450;2024-03-29T13:10:43;3.22;;;2.40;;
21814;SDS011;11069;48.988;8.450;2024-03-29T13:13:09;10.98;;;4.25;;
21814;SDS011;11069;48.988;8.450;2024-03-29T13:15:38;7.20;;;3.42;;
21814;SDS011;11069;48.988;8.450;2024-03-29T13:20:32;1.70;;;1.50;;
21814;SDS011;11069;48.988;8.450;2024-03-29T13:23:01;4.10;;;1.90;;
21814;SDS011;11069;48.988;8.450;2024-03-29T13:25:28;1.92;;;1.73;;
21814;SDS011;11069;48.988;8.450;2024-03-29T13:27:53;2.55;;;1.80;;
21814;SDS011;11069;48.988;8.450;2024-03-29T13:30:23;2.65;;;1.83;;
21814;SDS011;11069;48.988;8.450;2024-03-29T13:32:50;3.20;;;1.50;;
21814;SDS011;11069;48.988;8.450;2024-03-29T13:35:16;3.30;;;1.80;;
21814;SDS011;11069;48.988;8.450;2024-03-29T13:37:46;2.08;;;1.60;;
21814;SDS011;11069;48.988;8.450;2024-03-29T13:40:13;4.22;;;1.60;;
21814;SDS011;11069;48.988;8.450;2024-03-29T13:42:39;2.45;;;1.70;;
21814;SDS011;11069;48.988;8.450;2024-03-29T13:45:06;2.17;;;1.65;;
21814;SDS011;11069;48.988;8.450;2024-03-29T13:47:33;2.72;;;1.85;;
21814;SDS011;11069;48.988;8.450;2024-03-29T13:49:59;1.70;;;1.60;;
21814;SDS011;11069;48.988;8.450;2024-03-29T13:52:25;2.53;;;1.90;;
21814;SDS011;11069;48.988;8.450;2024-03-29T13:54:52;3.80;;;1.75;;
21814;SDS011;11069;48.988;8.450;2024-03-29T13:57:18;2.83;;;1.90;;
21814;SDS011;11069;48.988;8.450;2024-03-29T13:59:45;4.10;;;2.30;;
21814;SDS011;11069;48.988;8.450;2024-03-29T14:02:11;2.40;;;2.17;;
21814;SDS011;11069;48.988;8.450;2024-03-29T14:04:38;4.22;;;2.65;;
21814;SDS011;11069;48.988;8.450;2024-03-29T14:07:05;4.35;;;2.92;;
21814;SDS011;11069;48.988;8.450;2024-03-29T14:09:34;4.20;;;3.00;;
21814;SDS011;11069;48.988;8.450;2024-03-29T14:12:00;7.00;;;3.17;;
21814;SDS011;11069;48.988;8.450;2024-03-29T14:14:27;7.03;;;3.60;;
21814;SDS011;11069;48.988;8.450;2024-03-29T14:16:52;4.60;;;3.33;;
21814;SDS011;11069;48.988;8.450;2024-03-29T14:19:21;7.00;;;4.50;;
21814;SDS011;11069;48.988;8.450;2024-03-29T14:21:47;8.38;;;4.30;;
21814;SDS011;11069;48.988;8.450;2024-03-29T14:24:12;5.88;;;3.90;;
21814;SDS011;11069;48.988;8.450;2024-03-29T14:26:38;4.43;;;4.00;;
21814;SDS011;11069;48.988;8.450;2024-03-29T14:29:04;7.53;;;4.40;;
21814;SDS011;11069;48.988;8.450;2024-03-29T14:31:31;7.93;;;4.60;;
21814;SDS011;11069;48.988;8.450;2024-03-29T14:33:57;4.40;;;4.00;;
21814;SDS011;11069;48.988;8.450;2024-03-29T14:36:23;6.65;;;3.83;;
21814;SDS011;11069;48.988;8.450;2024-03-29T14:38:49;5.15;;;4.40;;
21814;SDS011;11069;48.988;8.450;2024-03-29T14:41:15;4.30;;;3.75;;
21814;SDS011;11069;48.988;8.450;2024-03-29T14:43:40;6.53;;;3.88;;
21814;SDS011;11069;48.988;8.450;2024-03-29T14:46:06;7.22;;;3.70;;
21814;SDS011;11069;48.988;8.450;2024-03-29T14:48:32;5.55;;;3.72;;
21814;SDS011;11069;48.988;8.450;2024-03-29T14:50:57;4.82;;;3.53;;
21814;SDS011;11069;48.988;8.450;2024-03-29T14:53:24;4.85;;;3.10;;